Sidell, Florida
Current Conditions -  °F | °C
As of 12:53 AM on Wednesday 28 Jan 2015 (Local Time) from KPGD Reporting Station
Clear Clear  
Wind Chill: 13°   Ceiling: Unl
Heat Index: 13°   Visibility: 10mi
Dew Point: 11°   Wind: 7mph
Humidity: 87%   Direction: 350°N
Pressure: 30.09"   Gusts: NA
Location:  27.215°N, 81.8567°W
Report Text: KPGD 280553Z AUTO 35006KT 10SM CLR 13/11 A3009 RMK AO2 SLP190 T01330111 10167 20133 51013
Loading
Personal Weather Stations






























Interactive Weather Map New forecast layout! Learn more

10-Day Weather Forecast

Advertisements
Track Severe Weather on mobile